^^
B2 Weather Station Historical Data
Daily Summary for December 23, 2018 Units:  English    Metric   Both
Daily Weekly Monthly Yearly Custom
  High: Low: Average:
Temperature: 38.6 °F 30.6 °F 33.6 °F
Dew Point: 31.7 °F 24.9 °F 28.2 °F
Humidity: 91% 61% 81%
Wind Speed: 15mph 1mph 7mph
Wind Gust: 8.9mph - -
Wind- - WNW
Pressure: 30.20 in 30.06 in -
Precipitation: 0 in    
Historical Graphs
 
 
Tabular Data for December 23, 2018
Time Temperature Dew Point Pressure Wind Wind Speed Wind Gust Humidity Rainfall Rate (Hourly) solar
00:04 33 °F 30.4 °F 30.07 in NNW 9.2 mph 4.3 mph 90% 0 in 0.00 W/m2
00:09 32.9 °F 30.3 °F 30.07 in WNW 8.1 mph 4.4 mph 90% 0 in 0.00 W/m2
00:15 32.9 °F 30.3 °F 30.07 in WNW 6.9 mph 4.1 mph 90% 0 in 0.00 W/m2
00:19 32.8 °F 30.2 °F 30.06 in NW 9.2 mph 3.2 mph 90% 0 in 0.00 W/m2
00:25 32.8 °F 30.5 °F 30.07 in NNW 8.1 mph 5.4 mph 91% 0 in 0.00 W/m2
00:29 32.6 °F 30.3 °F 30.07 in NW 8.1 mph 5 mph 91% 0 in 0.00 W/m2
00:34 32.6 °F 30.3 °F 30.07 in WNW 6 mph 3.9 mph 91% 0 in 0.00 W/m2
00:39 32.5 °F 30.2 °F 30.07 in North 5.8 mph 4.7 mph 91% 0 in 0.00 W/m2
00:44 32.5 °F 30.2 °F 30.07 in North 10.4 mph 4.2 mph 91% 0 in 0.00 W/m2
00:49 32.4 °F 30.1 °F 30.07 in WNW 8.1 mph 3.7 mph 91% 0 in 0.00 W/m2
00:54 32.3 °F 30 °F 30.08 in West 10.4 mph 5.7 mph 91% 0 in 0.00 W/m2
00:59 32.3 °F 30 °F 30.08 in West 6.9 mph 3.4 mph 91% 0 in 0.00 W/m2
01:04 32.3 °F 30 °F 30.08 in North 10.4 mph 4.3 mph 91% 0 in 0.00 W/m2
01:09 32.2 °F 29.9 °F 30.08 in WNW 8.1 mph 4.9 mph 91% 0 in 0.00 W/m2
01:14 32.1 °F 29.8 °F 30.08 in NW 8.1 mph 5.1 mph 91% 0 in 0.00 W/m2
01:19 32.1 °F 29.8 °F 30.09 in West 6.9 mph 1.5 mph 91% 0 in 0.00 W/m2
01:25 32 °F 29.7 °F 30.09 in NW 11.5 mph 5.6 mph 91% 0 in 0.00 W/m2
01:29 31.8 °F 29.2 °F 30.09 in NNW 11.5 mph 6.2 mph 90% 0 in 0.00 W/m2
01:34 31.7 °F 29.1 °F 30.09 in NNW 8.1 mph 4.3 mph 90% 0 in 0.00 W/m2
01:39 31.5 °F 28.9 °F 30.09 in NW 10.4 mph 6.1 mph 90% 0 in 0.00 W/m2
01:44 31.4 °F 28.8 °F 30.09 in WNW 6.9 mph 6.7 mph 90% 0 in 0.00 W/m2
01:49 31.4 °F 28.8 °F 30.09 in North 4.6 mph 2.3 mph 90% 0 in 0.00 W/m2
01:54 31.4 °F 28.8 °F 30.09 in NW 8.1 mph 3.6 mph 90% 0 in 0.00 W/m2
01:59 31.4 °F 28.8 °F 30.10 in NW 9.2 mph 3.2 mph 90% 0 in 0.00 W/m2
02:04 31.3 °F 28.7 °F 30.09 in WNW 9.2 mph 4.8 mph 90% 0 in 0.00 W/m2
02:09 31.1 °F 28.2 °F 30.10 in NW 6.9 mph 4.8 mph 89% 0 in 0.00 W/m2
02:14 31 °F 27.9 °F 30.10 in NW 9.2 mph 6.5 mph 88% 0 in 0.00 W/m2
02:19 31 °F 27.9 °F 30.10 in NNW 11.5 mph 6 mph 88% 0 in 0.00 W/m2
02:24 31 °F 27.9 °F 30.09 in NW 6.9 mph 3.9 mph 88% 0 in 0.00 W/m2
02:29 31.1 °F 28 °F 30.09 in NW 4.6 mph 3.1 mph 88% 0 in 0.00 W/m2
02:34 31.1 °F 28 °F 30.10 in WNW 6.9 mph 4.5 mph 88% 0 in 0.00 W/m2
02:39 31.1 °F 28 °F 30.09 in WNW 1.2 mph 0.7 mph 88% 0 in 0.00 W/m2
02:44 31.1 °F 28 °F 30.09 in NNW 4.6 mph 2.4 mph 88% 0 in 0.00 W/m2
02:49 31.1 °F 27.7 °F 30.10 in NW 3.5 mph 1.7 mph 87% 0 in 0.00 W/m2
02:54 31.2 °F 27.8 °F 30.10 in NW 3.5 mph 1.2 mph 87% 0 in 0.00 W/m2
02:59 31.2 °F 27.8 °F 30.10 in NW 3.5 mph 1 mph 87% 0 in 0.00 W/m2
03:04 31.2 °F 27.8 °F 30.10 in NW 3.5 mph 1.7 mph 87% 0 in 0.00 W/m2
03:09 31.4 °F 28 °F 30.11 in West 2.3 mph 0.2 mph 87% 0 in 0.00 W/m2
03:14 31.4 °F 28 °F 30.10 in West 3.5 mph 2.6 mph 87% 0 in 0.00 W/m2
03:19 31.4 °F 28 °F 30.10 in NW 1.2 mph 0.7 mph 87% 0 in 0.00 W/m2
03:24 31.5 °F 28.1 °F 30.10 in WNW 3.5 mph 1.4 mph 87% 0 in 0.00 W/m2
03:29 31.5 °F 28.1 °F 30.10 in NW 4.6 mph 0.7 mph 87% 0 in 0.00 W/m2
03:34 31.5 °F 27.8 °F 30.10 in WNW 1.2 mph 0.2 mph 86% 0 in 0.00 W/m2
03:39 31.6 °F 27.9 °F 30.10 in NW 2 mph 0.4 mph 86% 0 in 0.00 W/m2
03:44 31.6 °F 27.9 °F 30.10 in West 3.5 mph 0.8 mph 86% 0 in 0.00 W/m2
03:49 31.6 °F 27.9 °F 30.10 in West 3.5 mph 0.8 mph 86% 0 in 0.00 W/m2
03:54 31.6 °F 27.9 °F 30.10 in West 3.5 mph 1.6 mph 86% 0 in 0.00 W/m2
03:59 31.6 °F 27.9 °F 30.10 in NW 5.8 mph 2 mph 86% 0 in 0.00 W/m2
04:04 31.5 °F 27.8 °F 30.10 in WNW 3.5 mph 2 mph 86% 0 in 0.00 W/m2
04:09 31.5 °F 27.8 °F 30.10 in WNW 8 mph 4.8 mph 86% 0 in 0.00 W/m2
04:14 31.4 °F 27.7 °F 30.10 in WNW 3.5 mph 1.5 mph 86% 0 in 0.00 W/m2
04:19 31.4 °F 28 °F 30.10 in SW 6 mph 2 mph 87% 0 in 0.00 W/m2
04:24 31.4 °F 28 °F 30.11 in WNW 5.8 mph 3.1 mph 87% 0 in 0.00 W/m2
04:29 31.3 °F 27.9 °F 30.11 in NNW 3.5 mph 3 mph 87% 0 in 0.00 W/m2
04:34 31.2 °F 27.8 °F 30.11 in WNW 4.6 mph 3 mph 87% 0 in 0.00 W/m2
04:39 31.2 °F 27.8 °F 30.11 in North 6.9 mph 4.4 mph 87% 0 in 0.00 W/m2
04:44 31.1 °F 27.7 °F 30.11 in WNW 9.2 mph 4.8 mph 87% 0 in 0.00 W/m2
04:49 31.1 °F 27.7 °F 30.11 in NW 6.9 mph 3.5 mph 87% 0 in 0.00 W/m2
04:54 31 °F 27.9 °F 30.11 in WNW 8.1 mph 2.8 mph 88% 0 in 0.00 W/m2
04:59 31 °F 27.9 °F 30.11 in WNW 5 mph 1.5 mph 88% 0 in 0.00 W/m2
05:04 31 °F 27.9 °F 30.11 in West 5.8 mph 1 mph 88% 0 in 0.00 W/m2
05:09 31 °F 27.9 °F 30.11 in West 3.5 mph 2.3 mph 88% 0 in 0.00 W/m2
05:14 31.1 °F 28 °F 30.12 in NW 2.3 mph 0.9 mph 88% 0 in 0.00 W/m2
05:19 31.1 °F 28 °F 30.12 in WSW 3.5 mph 2.6 mph 88% 0 in 0.00 W/m2
05:24 31.1 °F 28 °F 30.11 in West 2.3 mph 2.8 mph 88% 0 in 0.00 W/m2
05:29 31.1 °F 28 °F 30.11 in NW 2.3 mph 1.8 mph 88% 0 in 0.00 W/m2
05:34 31.2 °F 28.1 °F 30.12 in NW 3.5 mph 1.4 mph 88% 0 in 0.00 W/m2
05:39 31.2 °F 28.1 °F 30.12 in NW 3.5 mph 1.3 mph 88% 0 in 0.00 W/m2
05:44 31.2 °F 28.3 °F 30.12 in WNW 3.5 mph 2.4 mph 89% 0 in 0.00 W/m2
05:49 31.2 °F 28.3 °F 30.12 in WNW 2.3 mph 1.5 mph 89% 0 in 0.00 W/m2
05:54 31.3 °F 28.4 °F 30.12 in WNW 5.8 mph 2.9 mph 89% 0 in 0.00 W/m2
05:59 31.4 °F 28.3 °F 30.12 in WNW 4.6 mph 2.3 mph 88% 0 in 0.00 W/m2
06:04 31.4 °F 28.3 °F 30.12 in NW 4.6 mph 0.7 mph 88% 0 in 0.00 W/m2
06:09 31.4 °F 28.3 °F 30.12 in West 3.5 mph 0.3 mph 88% 0 in 0.00 W/m2
06:14 31.5 °F 28.4 °F 30.12 in WSW 1 mph 0.2 mph 88% 0 in 0.00 W/m2
06:19 31.5 °F 28.4 °F 30.12 in West 5.8 mph 0.8 mph 88% 0 in 0.00 W/m2
06:24 31.6 °F 28.5 °F 30.12 in NW 3 mph 1.7 mph 88% 0 in 0.00 W/m2
06:29 31.6 °F 28.5 °F 30.12 in WNW 4.6 mph 1.9 mph 88% 0 in 0.00 W/m2
06:34 31.6 °F 28.5 °F 30.12 in West 5 mph 2.4 mph 88% 0 in 0.00 W/m2
06:39 31.5 °F 28.6 °F 30.12 in NW 6.9 mph 3.9 mph 89% 0 in 0.00 W/m2
06:45 31.5 °F 28.6 °F 30.12 in NW 5.8 mph 2.9 mph 89% 0 in 0.00 W/m2
06:49 31.5 °F 28.6 °F 30.12 in WNW 3.5 mph 2.6 mph 89% 0 in 0.00 W/m2
06:54 31.5 °F 28.6 °F 30.13 in WNW 3.5 mph 1.5 mph 89% 0 in 0.00 W/m2
06:59 31.5 °F 28.6 °F 30.13 in WNW 4.6 mph 2 mph 89% 0 in 0.00 W/m2
07:04 31.5 °F 28.6 °F 30.13 in North 4.6 mph 2.2 mph 89% 0 in 0.00 W/m2
07:09 31.4 °F 28.5 °F 30.13 in WNW 3.5 mph 1.9 mph 89% 0 in 0.00 W/m2
07:14 31.4 °F 28.5 °F 30.13 in WNW 9 mph 3 mph 89% 0 in 0.00 W/m2
07:19 31.3 °F 28.4 °F 30.13 in WNW 8.1 mph 3 mph 89% 0 in 0.00 W/m2
07:24 31.2 °F 28.3 °F 30.13 in NW 6.9 mph 2.4 mph 89% 0 in 0.00 W/m2
07:29 31.1 °F 28.5 °F 30.14 in WNW 5.8 mph 2.9 mph 90% 0 in 0.00 W/m2
07:34 31.1 °F 28.5 °F 30.14 in WNW 6.9 mph 4.6 mph 90% 0 in 0.00 W/m2
07:40 31.1 °F 28.5 °F 30.14 in NW 4.6 mph 3 mph 90% 0 in 0.00 W/m2
07:45 31.1 °F 28.5 °F 30.14 in West 7 mph 3 mph 90% 0 in 5.00 W/m2
07:49 31.1 °F 28.5 °F 30.14 in WSW 3.5 mph 1.7 mph 90% 0 in 9.00 W/m2
07:54 31.1 °F 28.5 °F 30.14 in West 4.6 mph 2.4 mph 90% 0 in 16.00 W/m2
07:59 31.1 °F 28.5 °F 30.14 in WSW 3.5 mph 1.3 mph 90% 0 in 19.00 W/m2
08:05 31.2 °F 28.6 °F 30.14 in WNW 4.6 mph 2.6 mph 90% 0 in 16.00 W/m2
08:09 31.3 °F 28.7 °F 30.15 in WNW 3.5 mph 1.1 mph 90% 0 in 18.00 W/m2
08:15 31.4 °F 28.8 °F 30.14 in West 4 mph 1.9 mph 90% 0 in 28.00 W/m2
08:19 31.5 °F 28.9 °F 30.15 in WNW 3.5 mph 1.9 mph 90% 0 in 56.00 W/m2
08:24 31.6 °F 29 °F 30.15 in West 4.6 mph 0.4 mph 90% 0 in 69.00 W/m2
08:29 31.7 °F 29.1 °F 30.15 in WSW 6 mph 2.8 mph 90% 0 in 60.00 W/m2
08:35 31.8 °F 29.2 °F 30.15 in SW 5.8 mph 3.6 mph 90% 0 in 134.00 W/m2
08:39 31.9 °F 29.3 °F 30.15 in WSW 4.6 mph 2.5 mph 90% 0 in 139.00 W/m2
08:44 32 °F 29.4 °F 30.15 in SW 6 mph 6 mph 90% 0 in 123.00 W/m2
08:49 32.3 °F 29.4 °F 30.15 in WSW 3 mph 0.4 mph 89% 0 in 125.00 W/m2
08:54 32.4 °F 29.5 °F 30.15 in WSW 3 mph 2.1 mph 89% 0 in 155.00 W/m2
08:59 32.6 °F 29.7 °F 30.15 in SW 2.3 mph 1 mph 89% 0 in 209.00 W/m2
09:04 33 °F 30.1 °F 30.15 in WSW 4 mph 3.2 mph 89% 0 in 149.00 W/m2
09:09 33.1 °F 29.9 °F 30.15 in SW 3.5 mph 1.7 mph 88% 0 in 97.00 W/m2
09:14 33.1 °F 29.9 °F 30.16 in SW 3.5 mph 2 mph 88% 0 in 86.00 W/m2
09:19 33.1 °F 29.9 °F 30.16 in SSW 3.5 mph 0.4 mph 88% 0 in 70.00 W/m2
09:24 33.3 °F 30.4 °F 30.16 in SW 4 mph 1.6 mph 89% 0 in 67.00 W/m2
09:29 33.2 °F 30 °F 30.16 in SSW 5.8 mph 1 mph 88% 0 in 65.00 W/m2
09:34 33.1 °F 29.9 °F 30.16 in SSW 3.5 mph 1.1 mph 88% 0 in 63.00 W/m2
09:39 33 °F 29.8 °F 30.16 in SSW 8.1 mph 3.8 mph 88% 0 in 54.00 W/m2
09:45 32.9 °F 29.7 °F 30.16 in SSW 4.6 mph 2.4 mph 88% 0 in 54.00 W/m2
09:49 32.9 °F 30 °F 30.15 in SW 6 mph 2.8 mph 89% 0 in 60.00 W/m2
09:54 32.8 °F 29.9 °F 30.15 in SSW 4.6 mph 1 mph 89% 0 in 120.00 W/m2
09:59 32.9 °F 30 °F 30.15 in SW 6.9 mph 2.4 mph 89% 0 in 128.00 W/m2
10:04 33 °F 30.1 °F 30.15 in North 9 mph 4.7 mph 89% 0 in 113.00 W/m2
10:09 32.9 °F 30 °F 30.16 in WSW 11.5 mph 5.5 mph 89% 0 in 90.00 W/m2
10:14 33 °F 30.1 °F 30.15 in SW 3.5 mph 1.7 mph 89% 0 in 63.00 W/m2
10:19 33.1 °F 30.2 °F 30.16 in WSW 5.8 mph 4.4 mph 89% 0 in 63.00 W/m2
10:24 33 °F 30.1 °F 30.16 in WSW 9.2 mph 6.8 mph 89% 0 in 69.00 W/m2
10:29 32.9 °F 30 °F 30.16 in WSW 11.5 mph 7.2 mph 89% 0 in 62.00 W/m2
10:34 32.9 °F 30 °F 30.15 in WSW 11.5 mph 5.4 mph 89% 0 in 47.00 W/m2
10:39 32.8 °F 29.9 °F 30.15 in WSW 11.5 mph 6.8 mph 89% 0 in 42.00 W/m2
10:44 32.7 °F 30.1 °F 30.15 in SW 10.4 mph 5.9 mph 90% 0 in 51.00 W/m2
10:49 32.6 °F 30 °F 30.15 in SW 9.2 mph 3 mph 90% 0 in 35.00 W/m2
10:54 32.7 °F 30.1 °F 30.14 in WSW 4.6 mph 4.4 mph 90% 0 in 51.00 W/m2
10:59 32.7 °F 30.1 °F 30.14 in SW 11.5 mph 6.6 mph 90% 0 in 35.00 W/m2
11:04 32.7 °F 30.4 °F 30.14 in WSW 15 mph 8.4 mph 91% 0 in 91.00 W/m2
11:09 32.7 °F 30.4 °F 30.13 in West 10.4 mph 5.7 mph 91% 0 in 90.00 W/m2
11:14 32.8 °F 30.5 °F 30.13 in WSW 9.2 mph 6.5 mph 91% 0 in 79.00 W/m2
11:19 32.8 °F 30.5 °F 30.13 in SW 10.4 mph 4.2 mph 91% 0 in 100.00 W/m2
11:24 32.9 °F 30.6 °F 30.12 in WSW 11.5 mph 6.4 mph 91% 0 in 139.00 W/m2
11:29 33.1 °F 30.8 °F 30.12 in SW 8.1 mph 4.1 mph 91% 0 in 211.00 W/m2
11:34 33.5 °F 31.2 °F 30.11 in North 8.1 mph 6.8 mph 91% 0 in 230.00 W/m2
11:39 33.6 °F 30.7 °F 30.11 in WSW 10.4 mph 5.1 mph 89% 0 in 195.00 W/m2
11:44 33.9 °F 31 °F 30.11 in West 6.9 mph 6.3 mph 89% 0 in 195.00 W/m2
11:49 34.1 °F 30.9 °F 30.11 in WSW 12 mph 8.9 mph 88% 0 in 221.00 W/m2
11:54 34.3 °F 30.8 °F 30.10 in SW 12.7 mph 7.4 mph 87% 0 in 476.00 W/m2
11:59 34.6 °F 31.1 °F 30.10 in SW 9.2 mph 5.2 mph 87% 0 in 174.00 W/m2
12:04 34.6 °F 30.8 °F 30.10 in WSW 9.2 mph 2.9 mph 86% 0 in 176.00 W/m2
12:09 34.9 °F 31.1 °F 30.10 in West 11.5 mph 4.7 mph 86% 0 in 257.00 W/m2
12:14 35.3 °F 31.2 °F 30.09 in WSW 10.4 mph 4.9 mph 85% 0 in 294.00 W/m2
12:19 35.8 °F 31.4 °F 30.09 in North 8.1 mph 6.2 mph 84% 0 in 603.00 W/m2
12:24 36.4 °F 31.7 °F 30.09 in WSW 12.7 mph 6.6 mph 83% 0 in 585.00 W/m2
12:29 36.5 °F 31.2 °F 30.09 in WSW 10.4 mph 7.1 mph 81% 0 in 202.00 W/m2
12:34 36.1 °F 30.5 °F 30.09 in North 12.7 mph 6.1 mph 80% 0 in 128.00 W/m2
12:39 36.1 °F 30.5 °F 30.09 in NW 9.2 mph 3.1 mph 80% 0 in 464.00 W/m2
12:44 36.1 °F 30.5 °F 30.08 in WNW 6 mph 6 mph 80% 0 in 464.00 W/m2
12:49 35.9 °F 30 °F 30.08 in NW 4.6 mph 2.6 mph 79% 0 in 142.00 W/m2
12:54 36 °F 30.4 °F 30.08 in WNW 7 mph 2.2 mph 80% 0 in 162.00 W/m2
12:59 36 °F 30.1 °F 30.08 in WNW 6.9 mph 4.8 mph 79% 0 in 97.00 W/m2
13:04 35.9 °F 30.3 °F 30.08 in WNW 10.4 mph 4.2 mph 80% 0 in 118.00 W/m2
13:09 35.8 °F 30.5 °F 30.08 in WNW 6.9 mph 4 mph 81% 0 in 142.00 W/m2
13:14 35.8 °F 30.5 °F 30.08 in North 5 mph 3.3 mph 81% 0 in 98.00 W/m2
13:19 36.4 °F 31.1 °F 30.08 in WNW 7 mph 3.6 mph 81% 0 in 394.00 W/m2
13:24 37 °F 31.4 °F 30.08 in North 8 mph 4.3 mph 80% 0 in 390.00 W/m2
13:29 37.5 °F 31.3 °F 30.08 in SW 7 mph 4 mph 78% 0 in 390.00 W/m2
13:34 37.7 °F 30.2 °F 30.08 in North 9.2 mph 4.8 mph 74% 0 in 378.00 W/m2
13:39 38 °F 30.1 °F 30.08 in WNW 6.9 mph 2.3 mph 73% 0 in 364.00 W/m2
13:44 38.3 °F 30.4 °F 30.08 in NW 5 mph 3.7 mph 73% 0 in 390.00 W/m2
13:49 38.4 °F 29.8 °F 30.08 in WNW 7 mph 2.9 mph 71% 0 in 297.00 W/m2
13:54 38.6 °F 28.6 °F 30.08 in WNW 10.4 mph 4.2 mph 67% 0 in 311.00 W/m2
13:59 38.4 °F 28 °F 30.08 in NW 6.9 mph 3.8 mph 66% 0 in 257.00 W/m2
14:04 38.3 °F 27.6 °F 30.08 in North 9.2 mph 6.3 mph 65% 0 in 250.00 W/m2
14:09 38.1 °F 27 °F 30.08 in North 8.1 mph 4.3 mph 64% 0 in 304.00 W/m2
14:14 38.1 °F 27.4 °F 30.09 in NW 8.1 mph 2.1 mph 65% 0 in 341.00 W/m2
14:20 38.4 °F 28 °F 30.09 in WNW 8.1 mph 5.5 mph 66% 0 in 315.00 W/m2
14:24 38.2 °F 27.1 °F 30.09 in WNW 13.8 mph 7.3 mph 64% 0 in 334.00 W/m2
14:29 38 °F 27.3 °F 30.09 in NNW 13.8 mph 6.2 mph 65% 0 in 290.00 W/m2
14:34 38.2 °F 27.5 °F 30.09 in NW 11.5 mph 7.1 mph 65% 0 in 255.00 W/m2
14:39 37.9 °F 27.2 °F 30.09 in WNW 10.4 mph 6.7 mph 65% 0 in 253.00 W/m2
14:44 37.7 °F 27 °F 30.09 in NNW 8.1 mph 5.4 mph 65% 0 in 185.00 W/m2
14:49 37.7 °F 27 °F 30.10 in WNW 9 mph 2.4 mph 65% 0 in 216.00 W/m2
14:54 38 °F 26.9 °F 30.10 in NW 9.2 mph 5.5 mph 64% 0 in 197.00 W/m2
14:59 38.2 °F 27.1 °F 30.10 in WNW 8.1 mph 2.9 mph 64% 0 in 193.00 W/m2
15:04 38.5 °F 27.4 °F 30.10 in North 5 mph 3.7 mph 64% 0 in 165.00 W/m2
15:09 38.6 °F 26.7 °F 30.10 in North 9 mph 6.1 mph 62% 0 in 149.00 W/m2
15:14 38.4 °F 26.1 °F 30.10 in North 10.4 mph 4.8 mph 61% 0 in 135.00 W/m2
15:19 38.2 °F 25.9 °F 30.10 in NNW 8.1 mph 5.9 mph 61% 0 in 121.00 W/m2
15:24 38.2 °F 25.9 °F 30.10 in North 8.1 mph 5.5 mph 61% 0 in 74.00 W/m2
15:29 37.9 °F 25.6 °F 30.11 in North 8.1 mph 5.1 mph 61% 0 in 39.00 W/m2
15:34 37.6 °F 25.4 °F 30.11 in North 12.7 mph 2.6 mph 61% 0 in 26.00 W/m2
15:39 37.4 °F 25.6 °F 30.11 in NNW 10 mph 4.5 mph 62% 0 in 23.00 W/m2
15:44 37.4 °F 25.6 °F 30.11 in West 9.2 mph 3.6 mph 62% 0 in 21.00 W/m2
15:49 37.4 °F 25.6 °F 30.11 in North 10.4 mph 5.1 mph 62% 0 in 19.00 W/m2
15:54 37.2 °F 25.8 °F 30.11 in North 3.5 mph 2.6 mph 63% 0 in 18.00 W/m2
15:59 37.1 °F 25.7 °F 30.11 in North 5 mph 3.1 mph 63% 0 in 16.00 W/m2
16:04 37 °F 25.2 °F 30.11 in North 3.5 mph 1.9 mph 62% 0 in 14.00 W/m2
16:09 36.8 °F 25.4 °F 30.11 in West 5.8 mph 2.7 mph 63% 0 in 11.00 W/m2
16:14 36.8 °F 25.4 °F 30.11 in West 4 mph 1.1 mph 63% 0 in 9.00 W/m2
16:19 36.7 °F 25.3 °F 30.11 in WNW 8 mph 3.3 mph 63% 0 in 7.00 W/m2
16:24 36.7 °F 25.3 °F 30.11 in North 3.5 mph 1.3 mph 63% 0 in 5.00 W/m2
16:29 36.5 °F 25.5 °F 30.11 in SW 3.5 mph 1.6 mph 64% 0 in 0.00 W/m2
16:34 36.3 °F 25.3 °F 30.12 in North 3.5 mph 1.2 mph 64% 0 in 0.00 W/m2
16:39 36 °F 25.4 °F 30.12 in WSW 2.3 mph 1.5 mph 65% 0 in 0.00 W/m2
16:44 35.7 °F 25.4 °F 30.12 in North 2.3 mph 1.6 mph 66% 0 in 0.00 W/m2
16:49 35.6 °F 25.7 °F 30.13 in WSW 3.5 mph 1.1 mph 67% 0 in 0.00 W/m2
16:54 35.6 °F 25.7 °F 30.13 in SW 3.5 mph 1.2 mph 67% 0 in 0.00 W/m2
16:59 35.8 °F 25.9 °F 30.13 in North 3.5 mph 2.8 mph 67% 0 in 0.00 W/m2
17:04 36.2 °F 26.3 °F 30.13 in North 6 mph 3.2 mph 67% 0 in 0.00 W/m2
17:09 36.4 °F 26.1 °F 30.13 in North 4.6 mph 2.9 mph 66% 0 in 0.00 W/m2
17:14 36.5 °F 26.2 °F 30.14 in WSW 3.5 mph 3.6 mph 66% 0 in 0.00 W/m2
17:19 36.6 °F 26.3 °F 30.14 in SW 5.8 mph 3.6 mph 66% 0 in 0.00 W/m2
17:24 36.7 °F 26.8 °F 30.14 in SW 4.6 mph 2.7 mph 67% 0 in 0.00 W/m2
17:29 36.8 °F 26.9 °F 30.14 in SW 6.9 mph 4.4 mph 67% 0 in 0.00 W/m2
17:34 36.8 °F 27.2 °F 30.14 in SW 6.9 mph 5.2 mph 68% 0 in 0.00 W/m2
17:39 36.8 °F 27.2 °F 30.14 in SSW 9.2 mph 5.3 mph 68% 0 in 0.00 W/m2
17:44 36.8 °F 27.6 °F 30.14 in North 10.4 mph 7.6 mph 69% 0 in 0.00 W/m2
17:49 36.9 °F 27.7 °F 30.14 in WSW 12.7 mph 6.9 mph 69% 0 in 0.00 W/m2
17:54 36.9 °F 27.7 °F 30.14 in SW 10.4 mph 7.7 mph 69% 0 in 0.00 W/m2
17:59 36.9 °F 27.7 °F 30.14 in North 9.2 mph 5.5 mph 69% 0 in 0.00 W/m2
18:04 36.9 °F 28 °F 30.14 in North 10.4 mph 6.6 mph 70% 0 in 0.00 W/m2
18:09 36.9 °F 28 °F 30.14 in North 10.4 mph 4.8 mph 70% 0 in 0.00 W/m2
18:14 36.9 °F 28 °F 30.14 in North 8.1 mph 6 mph 70% 0 in 0.00 W/m2
18:19 36.8 °F 27.9 °F 30.14 in North 10.4 mph 4.6 mph 70% 0 in 0.00 W/m2
18:24 36.8 °F 27.9 °F 30.15 in North 6.9 mph 4.8 mph 70% 0 in 0.00 W/m2
18:29 36.8 °F 27.9 °F 30.15 in SW 11.5 mph 5.5 mph 70% 0 in 0.00 W/m2
18:34 36.8 °F 27.9 °F 30.15 in North 8.1 mph 5.9 mph 70% 0 in 0.00 W/m2
18:39 36.8 °F 28.3 °F 30.15 in North 9.2 mph 5.2 mph 71% 0 in 0.00 W/m2
18:44 36.8 °F 28.3 °F 30.15 in North 9 mph 5.3 mph 71% 0 in 0.00 W/m2
18:49 36.8 °F 28.3 °F 30.15 in North 10.4 mph 6.6 mph 71% 0 in 0.00 W/m2
18:54 36.7 °F 28.2 °F 30.15 in SW 12 mph 7 mph 71% 0 in 0.00 W/m2
18:59 36.6 °F 28.4 °F 30.15 in North 13.8 mph 7 mph 72% 0 in 0.00 W/m2
19:04 36.5 °F 28.3 °F 30.15 in West 12.7 mph 7.1 mph 72% 0 in 0.00 W/m2
19:09 36.3 °F 28.1 °F 30.16 in WSW 12 mph 7.6 mph 72% 0 in 0.00 W/m2
19:14 36.1 °F 28.3 °F 30.16 in WSW 11.5 mph 5.6 mph 73% 0 in 0.00 W/m2
19:19 36 °F 28.5 °F 30.16 in North 9.2 mph 4.6 mph 74% 0 in 0.00 W/m2
19:24 35.9 °F 28.4 °F 30.16 in North 9.2 mph 6.7 mph 74% 0 in 0.00 W/m2
19:29 35.9 °F 28.4 °F 30.16 in SW 9.2 mph 5.9 mph 74% 0 in 0.00 W/m2
19:34 35.8 °F 28.3 °F 30.16 in SW 10.4 mph 5.8 mph 74% 0 in 0.00 W/m2
19:39 35.7 °F 28.2 °F 30.16 in North 8.1 mph 5.6 mph 74% 0 in 0.00 W/m2
19:44 35.6 °F 27.8 °F 30.16 in WSW 9.2 mph 7.3 mph 73% 0 in 0.00 W/m2
19:49 35.5 °F 27.7 °F 30.16 in North 12.7 mph 7.2 mph 73% 0 in 0.00 W/m2
19:54 35.3 °F 27.5 °F 30.16 in North 8.1 mph 7.2 mph 73% 0 in 0.00 W/m2
19:59 35.2 °F 27.7 °F 30.16 in North 8 mph 4.5 mph 74% 0 in 0.00 W/m2
20:04 35 °F 27.5 °F 30.17 in West 10.4 mph 5.5 mph 74% 0 in 0.00 W/m2
20:09 34.8 °F 27.7 °F 30.17 in WSW 8.1 mph 5 mph 75% 0 in 0.00 W/m2
20:14 34.6 °F 27.5 °F 30.17 in North 9.2 mph 5.3 mph 75% 0 in 0.00 W/m2
20:19 34.5 °F 27.7 °F 30.17 in North 9.2 mph 6.2 mph 76% 0 in 0.00 W/m2
20:24 34.4 °F 27.6 °F 30.17 in North 7 mph 3.1 mph 76% 0 in 0.00 W/m2
20:29 34.2 °F 27.4 °F 30.18 in North 11.5 mph 6.2 mph 76% 0 in 0.00 W/m2
20:34 34.1 °F 27.6 °F 30.18 in SW 9.2 mph 3 mph 77% 0 in 0.00 W/m2
20:39 34.1 °F 27.6 °F 30.18 in North 9.2 mph 4.3 mph 77% 0 in 0.00 W/m2
20:44 34 °F 27.5 °F 30.18 in SW 8.1 mph 6.1 mph 77% 0 in 0.00 W/m2
20:49 33.9 °F 27.4 °F 30.18 in North 6 mph 5.1 mph 77% 0 in 0.00 W/m2
20:54 33.8 °F 27.7 °F 30.18 in West 8.1 mph 4.2 mph 78% 0 in 0.00 W/m2
20:59 33.6 °F 27.5 °F 30.18 in North 5.8 mph 3.5 mph 78% 0 in 0.00 W/m2
21:04 33.4 °F 27.3 °F 30.18 in SW 6.9 mph 2.3 mph 78% 0 in 0.00 W/m2
21:09 33.2 °F 27.1 °F 30.18 in North 5.8 mph 5.6 mph 78% 0 in 0.00 W/m2
21:14 33.1 °F 27 °F 30.18 in North 5.8 mph 3.1 mph 78% 0 in 0.00 W/m2
21:19 32.9 °F 26.8 °F 30.18 in WSW 4 mph 3.7 mph 78% 0 in 0.00 W/m2
21:24 32.7 °F 26.6 °F 30.18 in North 6.9 mph 2.2 mph 78% 0 in 0.00 W/m2
21:29 32.5 °F 26.4 °F 30.18 in North 6 mph 3.2 mph 78% 0 in 0.00 W/m2
21:34 32.3 °F 26.5 °F 30.18 in North 6.9 mph 3 mph 79% 0 in 0.00 W/m2
21:39 32.2 °F 26.4 °F 30.18 in North 7 mph 6 mph 79% 0 in 0.00 W/m2
21:44 32.2 °F 26.4 °F 30.18 in North 4.6 mph 1.6 mph 79% 0 in 0.00 W/m2
21:49 31.9 °F 26.1 °F 30.18 in WSW 3.5 mph 3.2 mph 79% 0 in 0.00 W/m2
21:54 31.7 °F 25.9 °F 30.18 in WSW 3.5 mph 2.1 mph 79% 0 in 0.00 W/m2
21:59 31.5 °F 26 °F 30.18 in North 3.5 mph 2.7 mph 80% 0 in 0.00 W/m2
22:04 31.4 °F 25.9 °F 30.18 in SW 5.8 mph 3.3 mph 80% 0 in 0.00 W/m2
22:09 31.6 °F 26.1 °F 30.19 in North 5 mph 5.1 mph 80% 0 in 0.00 W/m2
22:14 31.7 °F 26.2 °F 30.18 in North 5.8 mph 3.6 mph 80% 0 in 0.00 W/m2
22:19 31.8 °F 26.3 °F 30.18 in North 4 mph 2.5 mph 80% 0 in 0.00 W/m2
22:24 31.8 °F 26.3 °F 30.19 in North 9.2 mph 3.7 mph 80% 0 in 0.00 W/m2
22:29 31.9 °F 26.1 °F 30.19 in North 3.5 mph 2.1 mph 79% 0 in 0.00 W/m2
22:34 31.9 °F 26.4 °F 30.18 in West 5.8 mph 1.6 mph 80% 0 in 0.00 W/m2
22:39 31.9 °F 26.1 °F 30.18 in WSW 5.8 mph 2.9 mph 79% 0 in 0.00 W/m2
22:44 31.7 °F 25.9 °F 30.18 in North 8.1 mph 4.3 mph 79% 0 in 0.00 W/m2
22:49 31.6 °F 25.8 °F 30.18 in WSW 4.6 mph 2.6 mph 79% 0 in 0.00 W/m2
22:54 31.5 °F 26 °F 30.19 in West 5.8 mph 1.9 mph 80% 0 in 0.00 W/m2
22:59 31.4 °F 25.9 °F 30.19 in North 6.9 mph 2.3 mph 80% 0 in 0.00 W/m2
23:04 31.4 °F 25.9 °F 30.19 in North 10.4 mph 3.2 mph 80% 0 in 0.00 W/m2
23:09 31.5 °F 26 °F 30.19 in North 6.9 mph 3 mph 80% 0 in 0.00 W/m2
23:14 31.5 °F 25.7 °F 30.19 in North 4.6 mph 3.9 mph 79% 0 in 0.00 W/m2
23:19 31.6 °F 25.8 °F 30.19 in North 6.9 mph 4.2 mph 79% 0 in 0.00 W/m2
23:24 31.6 °F 25.5 °F 30.19 in North 9.2 mph 4.5 mph 78% 0 in 0.00 W/m2
23:29 31.6 °F 25.5 °F 30.19 in WNW 9.2 mph 5.4 mph 78% 0 in 0.00 W/m2
23:34 31.6 °F 25.5 °F 30.19 in North 6.9 mph 5 mph 78% 0 in 0.00 W/m2
23:39 31.4 °F 25.3 °F 30.19 in North 8.1 mph 5.6 mph 78% 0 in 0.00 W/m2
23:44 31.2 °F 25.4 °F 30.19 in West 6.9 mph 5.7 mph 79% 0 in 0.00 W/m2
23:49 31 °F 25.2 °F 30.19 in WSW 8.1 mph 2.9 mph 79% 0 in 0.00 W/m2
23:54 30.8 °F 25.1 °F 30.20 in North 6.9 mph 3 mph 79% 0 in 0.00 W/m2
23:59 30.6 °F 24.9 °F 30.20 in North 9.2 mph 5.7 mph 79% 0 in 0.00 W/m2
Bourbonnais, Illinois, USA
Compliments of Weather Underground - 4 mb